Time;durP1;ratioP1;P1;durP2;ratioP2;P2;SDS_P1;SDS_P2;PMS_P1;PMS_P2;Temp;Humidity;BMP_temperature;BMP_pressure;BME280_temperature;BME280_humidity;BME280_pressure;Samples;Min_cycle;Max_cycle;Signal;HPM_P1;HPM_P2
2023/02/09 00:00:13;;;;;;;9.57;6.17;;;1.80;65.30;;;;;;5034975;28;20217;-64
2023/02/09 00:02:41;;;;;;;12.60;6.77;;;1.80;65.30;;;;;;5036931;28;20301;-65
2023/02/09 00:05:09;;;;;;;11.90;6.30;;;1.80;65.50;;;;;;5035853;28;20708;-65
2023/02/09 00:07:36;;;;;;;10.97;7.50;;;1.80;65.30;;;;;;5036702;28;20311;-65
2023/02/09 00:10:04;;;;;;;11.73;7.07;;;1.70;65.00;;;;;;5033276;28;20634;-65
2023/02/09 00:15:17;;;;;;;11.23;6.60;;;1.70;65.30;;;;;;5033346;28;20201;-65
2023/02/09 00:17:44;;;;;;;12.23;6.90;;;1.60;65.50;;;;;;5031292;28;20581;-64
2023/02/09 00:20:11;;;;;;;12.83;6.33;;;1.50;65.50;;;;;;5040889;28;20200;-64
2023/02/09 00:22:38;;;;;;;11.63;6.70;;;1.50;65.70;;;;;;5040566;28;20218;-64
2023/02/09 00:25:05;;;;;;;13.43;7.70;;;1.40;65.80;;;;;;5038882;28;20197;-64
2023/02/09 00:27:34;;;;;;;12.17;7.50;;;1.40;66.00;;;;;;5037968;28;20652;-64
2023/02/09 00:30:03;;;;;;;11.67;7.17;;;1.30;66.10;;;;;;5037977;28;20224;-65
2023/02/09 00:32:32;;;;;;;16.40;7.90;;;1.30;66.20;;;;;;5034696;28;20599;-65
2023/02/09 00:34:59;;;;;;;11.03;6.67;;;1.30;66.00;;;;;;5035356;28;20203;-64
2023/02/09 00:37:27;;;;;;;12.83;7.50;;;1.20;65.80;;;;;;5033372;28;20222;-64
2023/02/09 00:39:54;;;;;;;11.83;6.70;;;1.20;66.00;;;;;;5029117;28;20583;-65
2023/02/09 00:42:21;;;;;;;12.93;7.23;;;1.20;66.30;;;;;;5036422;28;20723;-65
2023/02/09 00:44:48;;;;;;;11.07;7.33;;;1.20;66.20;;;;;;5035760;28;20629;-65
2023/02/09 00:47:16;;;;;;;12.30;7.10;;;1.20;66.40;;;;;;5040861;28;20196;-65
2023/02/09 00:49:43;;;;;;;13.40;7.77;;;1.10;66.50;;;;;;5040699;28;20229;-64
2023/02/09 00:52:10;;;;;;;11.50;7.20;;;1.10;66.60;;;;;;5037035;28;20300;-65
2023/02/09 00:54:37;;;;;;;13.70;7.50;;;1.10;66.70;;;;;;5034506;28;20206;-64
2023/02/09 00:57:04;;;;;;;13.93;8.13;;;1.10;66.80;;;;;;5037495;28;20199;-64
2023/02/09 00:59:34;;;;;;;12.03;7.40;;;1.10;66.70;;;;;;5034637;28;20204;-65
2023/02/09 01:02:01;;;;;;;15.73;7.47;;;1.10;66.80;;;;;;5032966;28;20215;-64
2023/02/09 01:04:29;;;;;;;15.10;7.83;;;1.10;66.70;;;;;;5032933;28;20233;-65
2023/02/09 01:06:56;;;;;;;16.30;7.57;;;1.10;66.80;;;;;;5039048;28;20224;-65
2023/02/09 01:09:23;;;;;;;15.50;9.00;;;1.10;66.60;;;;;;5028594;28;20236;-65
2023/02/09 01:11:50;;;;;;;14.13;8.47;;;1.10;66.70;;;;;;5035766;28;20220;-64
2023/02/09 01:14:18;;;;;;;13.93;7.93;;;1.20;66.80;;;;;;5037780;28;20247;-64
2023/02/09 01:16:45;;;;;;;15.67;8.10;;;1.20;66.80;;;;;;5038244;28;20257;-64
2023/02/09 01:19:13;;;;;;;15.37;7.90;;;1.20;66.60;;;;;;5037114;28;20700;-65
2023/02/09 01:21:40;;;;;;;11.00;6.97;;;1.20;66.50;;;;;;5040635;28;20204;-64
2023/02/09 01:24:12;;;;;;;15.00;8.77;;;1.20;66.30;;;;;;5033003;28;20218;-66
2023/02/09 01:26:40;;;;;;;14.37;7.50;;;1.30;66.40;;;;;;5033944;28;20198;-64
2023/02/09 01:29:10;;;;;;;24.03;8.30;;;1.30;66.40;;;;;;5034417;28;20194;-65
2023/02/09 01:31:37;;;;;;;13.53;8.07;;;1.30;66.70;;;;;;5041784;28;20209;-64
2023/02/09 01:34:04;;;;;;;12.67;7.90;;;1.30;66.50;;;;;;5030881;28;20223;-64
2023/02/09 01:36:32;;;;;;;13.33;8.37;;;1.30;66.70;;;;;;5035193;28;20280;-66
2023/02/09 01:39:01;;;;;;;13.93;8.27;;;1.30;66.70;;;;;;5038743;28;20280;-65
2023/02/09 01:41:28;;;;;;;14.10;8.80;;;1.30;66.90;;;;;;5035421;28;20217;-65
2023/02/09 01:44:02;;;;;;;14.73;8.83;;;1.30;67.00;;;;;;5034360;28;20557;-64
2023/02/09 01:46:32;;;;;;;13.37;8.70;;;1.30;67.20;;;;;;5038404;28;20204;-64
2023/02/09 01:49:25;;;;;;;12.30;8.10;;;1.30;67.40;;;;;;5032437;28;20244;-64
2023/02/09 01:52:03;;;;;;;14.23;8.33;;;1.30;67.60;;;;;;5037858;28;20288;-66
2023/02/09 01:54:46;;;;;;;18.67;8.57;;;1.20;67.80;;;;;;5035698;28;20206;-64
2023/02/09 01:57:22;;;;;;;15.97;8.80;;;1.20;67.90;;;;;;5030777;28;20587;-64
2023/02/09 02:00:04;;;;;;;13.43;8.00;;;1.10;68.00;;;;;;5034078;28;20211;-66
2023/02/09 02:02:43;;;;;;;14.60;8.40;;;1.10;68.30;;;;;;5036654;28;20208;-64
2023/02/09 02:05:11;;;;;;;18.93;8.87;;;1.10;68.50;;;;;;5029204;28;20245;-64
2023/02/09 02:07:48;;;;;;;13.47;8.17;;;1.00;68.50;;;;;;5038251;28;20195;-65
2023/02/09 02:10:15;;;;;;;16.30;8.90;;;1.00;68.80;;;;;;5032409;28;20200;-64
2023/02/09 02:12:42;;;;;;;17.23;8.93;;;1.00;68.90;;;;;;5037487;28;20224;-64
2023/02/09 02:15:11;;;;;;;14.50;8.83;;;1.00;69.10;;;;;;5033922;28;20191;-64
2023/02/09 02:17:43;;;;;;;15.03;8.63;;;0.90;69.20;;;;;;5039190;28;20205;-64
2023/02/09 02:20:39;;;;;;;14.73;8.70;;;0.90;69.40;;;;;;5036586;28;20202;-64
2023/02/09 02:23:34;;;;;;;16.27;9.40;;;0.90;69.60;;;;;;5031427;28;20624;-64
2023/02/09 02:26:58;;;;;;;13.00;7.90;;;0.90;70.20;;;;;;5033299;28;20579;-64
2023/02/09 02:30:01;;;;;;;15.17;9.00;;;0.90;69.70;;;;;;5018538;28;20297;-64
2023/02/09 02:32:48;;;;;;;15.27;8.70;;;0.90;69.80;;;;;;5037764;28;20208;-64
2023/02/09 02:35:41;;;;;;;15.97;9.20;;;1.00;70.00;;;;;;5042226;28;20243;-64
2023/02/09 02:38:41;;;;;;;15.53;9.87;;;1.10;70.10;;;;;;5036962;28;20562;-64
2023/02/09 02:41:11;;;;;;;15.73;9.53;;;1.20;70.10;;;;;;5038517;28;20206;-64
2023/02/09 02:43:43;;;;;;;14.83;8.17;;;1.20;70.00;;;;;;5032026;28;20273;-68
2023/02/09 02:46:37;;;;;;;16.10;9.17;;;1.30;69.90;;;;;;5030364;28;20269;-64
2023/02/09 02:49:09;;;;;;;15.50;9.10;;;1.40;69.70;;;;;;5031301;28;20270;-64
2023/02/09 02:51:41;;;;;;;16.60;9.17;;;1.50;69.50;;;;;;5036252;28;20209;-64
2023/02/09 02:54:15;;;;;;;16.80;9.00;;;1.50;69.20;;;;;;5036184;28;20209;-64
2023/02/09 02:56:48;;;;;;;15.17;9.13;;;1.60;69.20;;;;;;5023580;28;20212;-64
2023/02/09 02:59:21;;;;;;;11.40;8.10;;;1.60;69.10;;;;;;5030592;28;20559;-64
2023/02/09 03:01:59;;;;;;;17.07;9.03;;;1.60;69.00;;;;;;5037231;28;20280;-65
2023/02/09 03:04:29;;;;;;;13.70;7.87;;;1.60;69.00;;;;;;5035179;28;20223;-64
2023/02/09 03:06:56;;;;;;;14.53;9.17;;;1.60;69.00;;;;;;5034068;28;20530;-64
2023/02/09 03:09:23;;;;;;;16.17;9.60;;;1.60;69.00;;;;;;5037592;28;20201;-64
2023/02/09 03:11:55;;;;;;;16.27;9.10;;;1.60;69.10;;;;;;5036727;28;20209;-64
2023/02/09 03:14:40;;;;;;;18.00;9.90;;;1.60;69.30;;;;;;5033155;28;20635;-67
2023/02/09 03:17:44;;;;;;;15.30;8.47;;;1.60;69.50;;;;;;5033613;28;20237;-64
2023/02/09 03:20:43;;;;;;;15.90;9.07;;;1.60;69.90;;;;;;5034522;28;20276;-64
2023/02/09 03:23:25;;;;;;;14.07;9.33;;;1.60;70.10;;;;;;5028947;28;20325;-66
2023/02/09 03:25:54;;;;;;;15.40;8.93;;;1.60;70.60;;;;;;5036779;28;20194;-65
2023/02/09 03:28:27;;;;;;;17.37;9.90;;;1.60;71.10;;;;;;5035472;28;20213;-63
2023/02/09 03:30:56;;;;;;;14.57;9.73;;;1.60;71.50;;;;;;5035084;28;20197;-64
2023/02/09 03:33:28;;;;;;;16.50;9.70;;;1.60;71.70;;;;;;5038099;28;20276;-64
2023/02/09 03:35:57;;;;;;;14.27;8.90;;;1.60;71.60;;;;;;5035245;28;20204;-64
2023/02/09 03:38:25;;;;;;;15.83;9.90;;;1.60;71.10;;;;;;5031895;28;20296;-64
2023/02/09 03:40:53;;;;;;;12.87;8.03;;;1.60;70.90;;;;;;5039739;28;20548;-65
2023/02/09 03:44:25;;;;;;;17.10;9.07;;;1.60;70.90;;;;;;5038891;28;20320;-64
2023/02/09 03:46:08;;;;;;;16.87;9.70;;;1.60;70.60;;;;;;5038480;28;20217;-64
2023/02/09 03:48:35;;;;;;;13.50;9.40;;;1.70;70.50;;;;;;5034333;28;20284;-64
2023/02/09 03:51:05;;;;;;;15.83;8.63;;;1.70;70.50;;;;;;5035698;28;20237;-63
2023/02/09 03:53:35;;;;;;;16.57;9.03;;;1.70;70.40;;;;;;5040494;28;20593;-64
2023/02/09 03:56:08;;;;;;;14.60;8.57;;;1.70;70.20;;;;;;5037761;28;20639;-64
2023/02/09 03:58:36;;;;;;;17.17;8.57;;;1.80;70.10;;;;;;5034783;28;20284;-66
2023/02/09 04:01:04;;;;;;;13.80;9.13;;;1.80;69.90;;;;;;5041617;28;20244;-64
2023/02/09 04:03:32;;;;;;;17.50;8.53;;;1.90;69.60;;;;;;5035271;28;20653;-64
2023/02/09 04:06:00;;;;;;;15.53;8.80;;;1.90;69.30;;;;;;5040557;28;20695;-64
2023/02/09 04:08:28;;;;;;;14.63;8.57;;;1.90;68.60;;;;;;5033174;28;20216;-64
2023/02/09 04:10:56;;;;;;;14.47;8.67;;;2.00;68.70;;;;;;5037998;28;20539;-65
2023/02/09 04:13:24;;;;;;;14.90;8.97;;;2.00;68.70;;;;;;5034479;28;20288;-65
2023/02/09 04:15:52;;;;;;;17.47;8.63;;;2.00;68.70;;;;;;5026829;28;20210;-64
2023/02/09 04:18:19;;;;;;;13.80;8.97;;;2.00;68.50;;;;;;5034791;28;20626;-64
2023/02/09 04:20:46;;;;;;;15.63;8.50;;;2.00;68.20;;;;;;5037535;28;20266;-64
2023/02/09 04:23:14;;;;;;;13.37;8.07;;;2.00;68.00;;;;;;5041432;28;20210;-64
2023/02/09 04:25:41;;;;;;;16.20;8.60;;;2.00;67.70;;;;;;5034815;28;20663;-64
2023/02/09 04:28:08;;;;;;;14.83;8.83;;;2.00;67.20;;;;;;5039663;28;20656;-64
2023/02/09 04:30:35;;;;;;;13.87;8.60;;;2.10;66.70;;;;;;5032153;28;20199;-64
2023/02/09 04:33:02;;;;;;;15.30;8.53;;;2.10;66.10;;;;;;5038321;28;20631;-64
2023/02/09 04:35:29;;;;;;;15.23;9.23;;;2.10;66.10;;;;;;5038168;28;20657;-66
2023/02/09 04:37:56;;;;;;;15.57;8.90;;;2.20;66.30;;;;;;5034780;28;20205;-64
2023/02/09 04:40:23;;;;;;;12.83;7.83;;;2.10;66.30;;;;;;5029096;28;20208;-64
2023/02/09 04:42:50;;;;;;;12.63;8.47;;;2.10;66.00;;;;;;5040408;28;20290;-64
2023/02/09 04:45:18;;;;;;;12.97;8.20;;;2.20;66.30;;;;;;5029232;28;20211;-64
2023/02/09 04:47:45;;;;;;;14.90;8.63;;;2.20;66.40;;;;;;5034790;28;20214;-64
2023/02/09 04:50:12;;;;;;;12.60;7.90;;;2.20;66.30;;;;;;5035991;28;20631;-64
2023/02/09 04:52:39;;;;;;;15.63;7.67;;;2.20;65.90;;;;;;5038751;28;20213;-64
2023/02/09 04:55:06;;;;;;;16.17;9.53;;;2.20;66.10;;;;;;5036609;28;20204;-65
2023/02/09 05:00:18;;;;;;;15.47;8.00;;;2.20;66.00;;;;;;5036765;28;20209;-64
2023/02/09 05:02:45;;;;;;;12.97;8.53;;;2.20;65.90;;;;;;5033606;28;20197;-64
2023/02/09 05:05:12;;;;;;;13.33;7.90;;;2.20;66.10;;;;;;5039061;28;20238;-64
2023/02/09 05:07:39;;;;;;;14.47;8.83;;;2.20;66.20;;;;;;5029053;28;20218;-64
2023/02/09 05:10:06;;;;;;;11.73;8.10;;;2.20;66.30;;;;;;5031981;28;20235;-64
2023/02/09 05:12:33;;;;;;;14.20;8.43;;;2.20;65.70;;;;;;5035893;28;20597;-64
2023/02/09 05:15:00;;;;;;;14.63;8.63;;;2.20;65.30;;;;;;5036430;28;20227;-64
2023/02/09 05:17:30;;;;;;;13.17;7.27;;;2.30;64.60;;;;;;5038384;28;20237;-64
2023/02/09 05:19:58;;;;;;;13.60;7.70;;;2.20;64.10;;;;;;5038209;28;20284;-67
2023/02/09 05:22:25;;;;;;;15.73;8.87;;;2.20;64.10;;;;;;5035598;28;20203;-65
2023/02/09 05:24:52;;;;;;;15.20;7.73;;;2.30;64.10;;;;;;5036587;28;20212;-64
2023/02/09 05:27:19;;;;;;;14.17;8.23;;;2.20;64.40;;;;;;5037336;28;20201;-64
2023/02/09 05:29:46;;;;;;;14.23;7.67;;;2.30;63.50;;;;;;5036678;28;20213;-64
2023/02/09 05:32:13;;;;;;;13.63;8.10;;;2.30;63.20;;;;;;5031757;28;20229;-64
2023/02/09 05:34:41;;;;;;;11.90;7.37;;;2.30;63.10;;;;;;5034130;28;20527;-65
2023/02/09 05:37:07;;;;;;;11.53;7.30;;;2.20;62.80;;;;;;5038092;28;20281;-64
2023/02/09 05:39:35;;;;;;;12.70;7.77;;;2.30;62.50;;;;;;5031854;28;20214;-64
2023/02/09 05:42:14;;;;;;;13.83;7.20;;;2.30;62.40;;;;;;5037672;28;20271;-65
2023/02/09 05:44:42;;;;;;;11.87;7.80;;;2.30;62.10;;;;;;5029758;28;20233;-64
2023/02/09 05:47:10;;;;;;;12.73;7.43;;;2.30;62.70;;;;;;5035793;28;20195;-64
2023/02/09 05:49:37;;;;;;;12.60;7.43;;;2.30;62.50;;;;;;5033412;28;20660;-65
2023/02/09 05:52:05;;;;;;;14.07;8.73;;;2.30;62.50;;;;;;5036652;28;20278;-64
2023/02/09 05:54:32;;;;;;;13.20;7.43;;;2.30;62.50;;;;;;5031446;28;20208;-65
2023/02/09 05:56:59;;;;;;;11.77;7.03;;;2.30;62.50;;;;;;5032592;28;20660;-64
2023/02/09 05:59:26;;;;;;;15.47;8.80;;;2.30;62.60;;;;;;5035847;28;20198;-66
2023/02/09 06:01:53;;;;;;;13.47;7.60;;;2.30;62.70;;;;;;5036842;28;20209;-64
2023/02/09 06:04:20;;;;;;;10.80;7.10;;;2.30;62.60;;;;;;5028881;28;20218;-64
2023/02/09 06:06:47;;;;;;;12.57;7.37;;;2.30;62.60;;;;;;5036942;28;20241;-66
2023/02/09 06:09:14;;;;;;;12.87;8.00;;;2.20;62.70;;;;;;5040293;28;20214;-65
2023/02/09 06:11:41;;;;;;;14.23;7.93;;;2.20;62.00;;;;;;5035462;28;20206;-64
2023/02/09 06:14:09;;;;;;;12.57;8.23;;;2.20;62.00;;;;;;5037517;28;20288;-64
2023/02/09 06:16:36;;;;;;;15.60;7.77;;;2.20;62.00;;;;;;5043454;28;20201;-65
2023/02/09 06:19:03;;;;;;;11.90;7.27;;;2.20;61.90;;;;;;5036315;28;20550;-64
2023/02/09 06:21:30;;;;;;;15.17;8.00;;;2.20;61.90;;;;;;5035264;28;20205;-65
2023/02/09 06:23:57;;;;;;;16.70;7.90;;;2.20;61.30;;;;;;5038141;28;20241;-64
2023/02/09 06:26:24;;;;;;;16.53;8.43;;;2.20;61.30;;;;;;5033790;28;20234;-64
2023/02/09 06:28:51;;;;;;;12.13;7.50;;;2.10;61.30;;;;;;5036106;28;20639;-65
2023/02/09 06:31:18;;;;;;;13.37;8.47;;;2.10;61.10;;;;;;5035751;28;20655;-65
2023/02/09 06:33:46;;;;;;;12.57;6.80;;;2.10;61.40;;;;;;5016172;28;20195;-64
2023/02/09 06:36:12;;;;;;;12.00;8.27;;;2.10;61.80;;;;;;5039852;28;20634;-64
2023/02/09 06:38:40;;;;;;;12.97;8.33;;;2.00;62.20;;;;;;5033982;28;20212;-64
2023/02/09 06:41:07;;;;;;;13.40;7.87;;;2.00;62.50;;;;;;5037977;28;20197;-64
2023/02/09 06:43:34;;;;;;;16.27;8.77;;;1.90;62.50;;;;;;5033997;28;20639;-64
2023/02/09 06:46:10;;;;;;;13.30;7.97;;;1.90;62.40;;;;;;5038519;28;20692;-64
2023/02/09 06:48:38;;;;;;;11.53;7.27;;;1.80;62.60;;;;;;5034421;28;20231;-64
2023/02/09 06:51:13;;;;;;;13.00;7.80;;;1.80;62.20;;;;;;5033394;28;20664;-64
2023/02/09 06:53:41;;;;;;;15.40;7.93;;;1.70;62.10;;;;;;5035793;28;20189;-64
2023/02/09 06:56:09;;;;;;;12.37;7.80;;;1.70;62.20;;;;;;5025445;28;20214;-64
2023/02/09 06:58:37;;;;;;;12.37;7.73;;;1.70;62.40;;;;;;5030540;28;20228;-64
2023/02/09 07:01:06;;;;;;;12.27;7.37;;;1.60;62.50;;;;;;5037122;28;20664;-64
2023/02/09 07:03:33;;;;;;;12.33;7.93;;;1.70;62.60;;;;;;5042555;28;20243;-64
2023/02/09 07:06:11;;;;;;;14.73;8.37;;;1.70;62.20;;;;;;5040487;28;20331;-64
2023/02/09 07:08:39;;;;;;;14.27;8.63;;;1.80;62.10;;;;;;5041342;28;20201;-64
2023/02/09 07:11:09;;;;;;;12.63;7.37;;;1.90;61.60;;;;;;5032804;28;20202;-64
2023/02/09 07:13:37;;;;;;;13.70;7.37;;;2.00;61.30;;;;;;5036314;28;20201;-64
2023/02/09 07:16:06;;;;;;;13.83;8.90;;;2.00;60.70;;;;;;5039069;28;20294;-64
2023/02/09 07:18:33;;;;;;;15.87;7.93;;;2.10;60.40;;;;;;5038072;28;20212;-65
2023/02/09 07:21:07;;;;;;;14.90;7.87;;;2.20;60.20;;;;;;5032612;28;20720;-64
2023/02/09 07:23:35;;;;;;;16.53;8.47;;;2.30;59.50;;;;;;5035365;28;20197;-64
2023/02/09 07:26:09;;;;;;;11.70;7.93;;;2.40;59.20;;;;;;5037314;28;20319;-64
2023/02/09 07:28:36;;;;;;;13.53;7.93;;;2.50;58.90;;;;;;5036590;28;20198;-64
2023/02/09 07:31:07;;;;;;;13.07;7.60;;;2.70;58.60;;;;;;5043792;28;20279;-64
2023/02/09 07:33:35;;;;;;;14.60;8.20;;;2.90;57.60;;;;;;5036580;28;20200;-64
2023/02/09 07:36:03;;;;;;;10.43;7.33;;;3.00;57.60;;;;;;5039608;28;20543;-64
2023/02/09 07:38:31;;;;;;;13.63;7.40;;;3.10;56.90;;;;;;5035777;28;20291;-64
2023/02/09 07:40:59;;;;;;;12.73;7.37;;;3.30;56.70;;;;;;5039877;28;20542;-64
2023/02/09 07:43:27;;;;;;;14.60;7.47;;;3.30;56.20;;;;;;5032691;28;20278;-64
2023/02/09 07:46:05;;;;;;;12.40;8.10;;;3.40;55.80;;;;;;5038582;28;20271;-64
2023/02/09 07:48:33;;;;;;;15.30;8.17;;;3.40;55.90;;;;;;5038846;28;20214;-64
2023/02/09 07:51:01;;;;;;;16.53;8.20;;;3.30;56.10;;;;;;5033110;28;20229;-64
2023/02/09 07:53:28;;;;;;;12.23;7.37;;;3.30;56.00;;;;;;5033275;28;20288;-64
2023/02/09 07:55:56;;;;;;;12.00;7.00;;;3.30;56.00;;;;;;5041809;28;20217;-64
2023/02/09 07:58:23;;;;;;;16.43;8.47;;;3.30;55.60;;;;;;5038649;28;20281;-64
2023/02/09 08:00:50;;;;;;;13.13;7.80;;;3.20;55.50;;;;;;5038980;28;20204;-64
2023/02/09 08:03:21;;;;;;;11.50;7.37;;;3.10;56.30;;;;;;5038850;28;20207;-65
2023/02/09 08:06:01;;;;;;;14.90;7.73;;;3.00;56.70;;;;;;5034635;28;20246;-65
2023/02/09 08:08:29;;;;;;;15.20;7.77;;;2.90;56.60;;;;;;5035752;28;20208;-65
2023/02/09 08:10:58;;;;;;;13.83;7.83;;;2.90;57.80;;;;;;5037078;28;20202;-64
2023/02/09 08:13:29;;;;;;;11.40;6.80;;;2.90;57.60;;;;;;5031476;28;20215;-65
2023/02/09 08:16:03;;;;;;;13.20;8.00;;;2.90;57.50;;;;;;5034589;28;20203;-65
2023/02/09 08:18:40;;;;;;;12.03;6.77;;;2.90;56.70;;;;;;5039412;28;20240;-65
2023/02/09 08:21:11;;;;;;;14.87;8.93;;;2.90;57.20;;;;;;5029621;28;20237;-65
2023/02/09 08:23:41;;;;;;;11.87;7.37;;;3.00;56.50;;;;;;5036713;28;20228;-65
2023/02/09 08:26:10;;;;;;;15.80;8.90;;;3.00;55.90;;;;;;5040246;28;20225;-65
2023/02/09 08:28:43;;;;;;;12.23;7.87;;;3.00;56.90;;;;;;5035792;28;20301;-65
2023/02/09 08:31:12;;;;;;;14.07;8.03;;;3.10;57.00;;;;;;5033402;28;20263;-67
2023/02/09 08:33:40;;;;;;;12.23;8.13;;;3.20;56.70;;;;;;5037980;28;20272;-65
2023/02/09 08:36:07;;;;;;;13.30;7.83;;;3.30;56.80;;;;;;5031655;28;20242;-66
2023/02/09 08:38:35;;;;;;;14.33;8.83;;;3.30;57.00;;;;;;5034370;28;20303;-65
2023/02/09 08:41:05;;;;;;;15.03;9.07;;;3.40;56.40;;;;;;5040288;28;20224;-65
2023/02/09 08:43:33;;;;;;;14.60;8.43;;;3.50;56.80;;;;;;5032370;28;20207;-65
2023/02/09 08:46:06;;;;;;;15.23;8.13;;;3.60;56.40;;;;;;5033299;28;20227;-65
2023/02/09 08:48:35;;;;;;;14.40;9.27;;;3.70;55.40;;;;;;5037112;28;21328;-65
2023/02/09 08:51:02;;;;;;;15.80;9.50;;;3.80;56.40;;;;;;5042023;28;20229;-65
2023/02/09 08:53:29;;;;;;;15.50;8.93;;;3.90;56.10;;;;;;5038321;28;20226;-64
2023/02/09 08:55:56;;;;;;;12.67;7.77;;;4.00;56.20;;;;;;5038067;28;20256;-65
2023/02/09 08:58:24;;;;;;;14.20;9.17;;;4.10;54.90;;;;;;5039338;28;20647;-64
2023/02/09 09:00:55;;;;;;;13.93;8.27;;;4.10;55.10;;;;;;5035135;28;20282;-65
2023/02/09 09:03:26;;;;;;;15.07;9.03;;;4.10;55.10;;;;;;5035871;28;20268;-65
2023/02/09 09:06:05;;;;;;;20.70;8.80;;;4.20;55.80;;;;;;5034259;28;20250;-65
2023/02/09 09:08:33;;;;;;;16.00;9.80;;;4.30;56.20;;;;;;5029369;28;20263;-65
2023/02/09 09:11:00;;;;;;;15.07;7.97;;;4.40;54.20;;;;;;5039019;28;20229;-66
2023/02/09 09:13:27;;;;;;;15.30;9.23;;;4.40;54.30;;;;;;5032728;28;20211;-64
2023/02/09 09:15:55;;;;;;;16.50;10.67;;;4.40;54.90;;;;;;5033105;28;20234;-65
2023/02/09 09:18:23;;;;;;;12.77;8.47;;;4.40;55.50;;;;;;5038340;28;20202;-64
2023/02/09 09:20:51;;;;;;;15.27;9.67;;;4.50;54.70;;;;;;5037038;28;20203;-65
2023/02/09 09:23:19;;;;;;;14.40;9.53;;;4.60;54.60;;;;;;5038710;28;20543;-64
2023/02/09 09:25:47;;;;;;;14.73;9.63;;;4.60;54.50;;;;;;5036484;28;20652;-65
2023/02/09 09:28:14;;;;;;;18.23;10.47;;;4.60;55.10;;;;;;5038276;28;20644;-65
2023/02/09 09:30:41;;;;;;;19.30;8.83;;;4.60;54.30;;;;;;5028786;28;20203;-65
2023/02/09 09:33:09;;;;;;;15.43;9.73;;;4.70;54.40;;;;;;5031772;28;20222;-65
2023/02/09 09:35:36;;;;;;;17.60;9.77;;;4.70;54.30;;;;;;5039014;28;20216;-65
2023/02/09 09:38:03;;;;;;;16.30;9.50;;;4.80;54.40;;;;;;5030341;28;20202;-65
2023/02/09 09:40:32;;;;;;;16.47;9.33;;;4.80;54.80;;;;;;5029291;28;20199;-65
2023/02/09 09:43:07;;;;;;;15.77;10.00;;;4.90;54.60;;;;;;5038812;28;20210;-65
2023/02/09 09:45:37;;;;;;;17.67;10.57;;;5.00;54.20;;;;;;5035706;28;20217;-65
2023/02/09 09:48:17;;;;;;;16.20;10.57;;;5.00;54.50;;;;;;5039056;28;20211;-65
2023/02/09 09:50:45;;;;;;;14.43;9.90;;;5.00;54.90;;;;;;5037719;28;20206;-65
2023/02/09 09:53:33;;;;;;;18.20;10.03;;;5.10;54.50;;;;;;5036726;28;20211;-64
2023/02/09 09:56:06;;;;;;;14.93;9.50;;;5.10;55.40;;;;;;5031377;28;20210;-65
2023/02/09 09:58:38;;;;;;;17.83;10.33;;;5.20;56.40;;;;;;5037231;28;20211;-64
2023/02/09 10:01:09;;;;;;;16.40;10.40;;;5.30;55.80;;;;;;5027398;28;20213;-64
2023/02/09 10:03:36;;;;;;;16.30;9.83;;;5.40;56.40;;;;;;5032735;28;20203;-64
2023/02/09 10:06:13;;;;;;;18.43;9.90;;;5.50;55.40;;;;;;5035516;28;20567;-63
2023/02/09 10:08:50;;;;;;;17.47;11.37;;;5.60;55.80;;;;;;5027574;28;20293;-65
2023/02/09 10:11:23;;;;;;;17.20;10.37;;;5.70;56.00;;;;;;5036779;28;20497;-64
2023/02/09 10:13:56;;;;;;;18.70;10.73;;;5.80;55.20;;;;;;5031373;28;20278;-63
2023/02/09 10:16:33;;;;;;;21.13;11.43;;;5.80;54.80;;;;;;5033468;28;20241;-64
2023/02/09 10:19:04;;;;;;;18.90;11.10;;;5.80;55.40;;;;;;5039485;28;20206;-63
2023/02/09 10:21:35;;;;;;;18.60;11.30;;;5.90;55.10;;;;;;5035900;28;20203;-64
2023/02/09 10:24:02;;;;;;;21.53;11.00;;;5.90;55.50;;;;;;5028409;28;20204;-63
2023/02/09 10:26:33;;;;;;;20.03;11.73;;;5.90;56.00;;;;;;5033435;28;20250;-64
2023/02/09 10:29:22;;;;;;;19.77;11.07;;;6.00;55.70;;;;;;5025736;28;20207;-63
2023/02/09 10:31:54;;;;;;;16.00;11.13;;;6.10;54.70;;;;;;5033534;28;20231;-63
2023/02/09 10:34:32;;;;;;;16.50;11.23;;;6.20;55.80;;;;;;5030496;28;20199;-64
2023/02/09 10:37:17;;;;;;;17.07;10.90;;;6.30;56.40;;;;;;5040165;28;20213;-65
2023/02/09 10:39:50;;;;;;;19.83;10.97;;;6.30;55.40;;;;;;5041495;28;20202;-63
2023/02/09 10:42:23;;;;;;;15.83;10.47;;;6.30;54.70;;;;;;5043977;28;20198;-63
2023/02/09 10:44:56;;;;;;;15.00;10.50;;;6.20;54.30;;;;;;5044123;28;20210;-64
2023/02/09 10:47:28;;;;;;;16.13;10.60;;;6.00;54.90;;;;;;5035368;28;20209;-64
2023/02/09 10:50:00;;;;;;;20.73;11.13;;;5.90;54.60;;;;;;5036745;28;20907;-64
2023/02/09 10:52:33;;;;;;;21.10;11.70;;;5.80;55.20;;;;;;5043011;28;20551;-62
2023/02/09 10:55:10;;;;;;;15.00;9.70;;;5.60;55.70;;;;;;5035418;28;20528;-63
2023/02/09 10:57:38;;;;;;;24.63;10.97;;;5.60;55.50;;;;;;5038029;28;20256;-62
2023/02/09 11:00:14;;;;;;;20.97;10.80;;;5.50;56.30;;;;;;5042648;28;20248;-62
2023/02/09 11:02:50;;;;;;;20.03;11.03;;;5.50;56.50;;;;;;5029605;28;20628;-63
2023/02/09 11:05:19;;;;;;;20.10;9.87;;;5.50;56.70;;;;;;5043068;28;20231;-64
2023/02/09 11:08:02;;;;;;;20.80;10.90;;;5.70;57.40;;;;;;5039461;28;20195;-63
2023/02/09 11:10:34;;;;;;;13.33;9.23;;;5.80;55.70;;;;;;5042899;28;20278;-64
2023/02/09 11:13:01;;;;;;;14.83;9.60;;;5.90;56.10;;;;;;5039033;28;20198;-64
2023/02/09 11:15:42;;;;;;;14.50;9.23;;;6.00;55.70;;;;;;5035817;28;20207;-64
2023/02/09 11:18:16;;;;;;;16.83;11.07;;;6.10;54.90;;;;;;5039424;28;20628;-63
2023/02/09 11:21:13;;;;;;;17.20;9.93;;;6.20;54.90;;;;;;5037600;28;20203;-63
2023/02/09 11:24:01;;;;;;;14.17;9.93;;;6.30;55.10;;;;;;5040401;28;20226;-63
2023/02/09 11:26:37;;;;;;;15.33;10.30;;;6.60;54.00;;;;;;5032490;28;20218;-64
2023/02/09 11:29:29;;;;;;;18.10;10.17;;;6.90;53.90;;;;;;5035834;28;20205;-64
2023/02/09 11:32:08;;;;;;;14.77;10.00;;;7.30;53.80;;;;;;5037953;28;20275;-62
2023/02/09 11:34:50;;;;;;;12.13;9.30;;;7.60;53.60;;;;;;5042440;28;20281;-64
2023/02/09 11:37:26;;;;;;;17.97;10.27;;;7.80;52.20;;;;;;5041301;28;20203;-62
2023/02/09 11:40:14;;;;;;;16.37;10.93;;;8.00;51.20;;;;;;5038424;28;20207;-64
2023/02/09 11:42:56;;;;;;;16.30;10.33;;;8.10;51.10;;;;;;5040060;28;20199;-64
2023/02/09 11:45:44;;;;;;;17.30;10.23;;;8.20;50.00;;;;;;5034623;28;20299;-64
2023/02/09 11:48:20;;;;;;;13.13;9.37;;;8.10;49.30;;;;;;5032155;28;20550;-65
2023/02/09 11:51:02;;;;;;;16.73;10.27;;;8.10;50.00;;;;;;5034267;28;20198;-64
2023/02/09 11:53:38;;;;;;;13.80;9.07;;;8.00;50.30;;;;;;5042091;28;20200;-65
2023/02/09 11:56:10;;;;;;;16.43;10.27;;;7.80;49.80;;;;;;5028245;28;20738;-63
2023/02/09 11:58:39;;;;;;;13.03;9.77;;;7.60;50.60;;;;;;5032593;28;20242;-64
2023/02/09 12:01:43;;;;;;;18.73;10.00;;;7.40;50.90;;;;;;5042252;28;20268;-65
2023/02/09 12:04:16;;;;;;;16.43;9.93;;;7.40;51.30;;;;;;5042050;28;20643;-65
2023/02/09 12:06:53;;;;;;;14.97;10.10;;;7.30;51.90;;;;;;5035929;28;20574;-63
2023/02/09 12:09:29;;;;;;;18.10;9.73;;;7.20;51.40;;;;;;5040846;28;20234;-62
2023/02/09 12:12:08;;;;;;;18.43;10.10;;;7.00;51.40;;;;;;5034259;28;20199;-62
2023/02/09 12:14:53;;;;;;;17.30;10.17;;;6.80;51.70;;;;;;5035023;28;20200;-63
2023/02/09 12:17:52;;;;;;;16.77;10.33;;;6.70;52.70;;;;;;5040964;28;20238;-64
2023/02/09 12:20:24;;;;;;;15.83;10.10;;;6.50;52.70;;;;;;5033491;28;20222;-63
2023/02/09 12:23:23;;;;;;;14.80;9.77;;;6.50;53.50;;;;;;5022359;28;20257;-66
2023/02/09 12:26:15;;;;;;;15.17;8.97;;;6.70;53.00;;;;;;5041002;28;20211;-65
2023/02/09 12:29:19;;;;;;;12.97;9.00;;;6.90;52.70;;;;;;5038220;28;20210;-63
2023/02/09 12:32:07;;;;;;;14.97;9.30;;;7.00;51.70;;;;;;5034815;28;20205;-63
2023/02/09 12:34:42;;;;;;;18.83;10.33;;;6.90;51.40;;;;;;5034826;28;20210;-65
2023/02/09 12:37:12;;;;;;;16.07;10.10;;;6.80;51.70;;;;;;5034775;28;20206;-63
2023/02/09 12:40:09;;;;;;;14.53;10.43;;;6.70;52.30;;;;;;5040389;28;20204;-64
2023/02/09 12:43:05;;;;;;;12.67;8.77;;;6.60;53.00;;;;;;5031986;28;20640;-64
2023/02/09 12:45:34;;;;;;;14.33;8.67;;;6.60;53.10;;;;;;5034699;28;20221;-63
2023/02/09 12:48:07;;;;;;;16.23;10.27;;;6.80;52.40;;;;;;5043414;28;20546;-65
2023/02/09 12:50:51;;;;;;;13.10;9.67;;;6.90;51.80;;;;;;5031278;28;20274;-65
2023/02/09 12:53:21;;;;;;;14.17;9.03;;;7.10;51.50;;;;;;5038569;28;20521;-65
2023/02/09 12:56:03;;;;;;;13.67;9.07;;;7.20;51.00;;;;;;5040575;28;20202;-63
2023/02/09 12:58:45;;;;;;;13.93;8.37;;;7.40;51.10;;;;;;5036643;28;20234;-63
2023/02/09 13:01:14;;;;;;;15.27;10.00;;;7.50;51.20;;;;;;5022834;28;20212;-65
2023/02/09 13:04:03;;;;;;;15.43;9.60;;;7.70;51.30;;;;;;5041045;28;20209;-65
2023/02/09 13:06:42;;;;;;;17.60;9.70;;;7.80;50.40;;;;;;5034924;28;20278;-64
2023/02/09 13:09:24;;;;;;;16.60;10.13;;;7.90;49.70;;;;;;5034310;28;20217;-65
2023/02/09 13:12:00;;;;;;;15.83;10.60;;;7.90;48.80;;;;;;5037850;28;20208;-65
2023/02/09 13:14:29;;;;;;;19.40;11.23;;;7.90;49.50;;;;;;5031597;28;20191;-64
2023/02/09 13:17:37;;;;;;;14.27;9.97;;;7.90;49.90;;;;;;5034510;28;20245;-64